Gillam Airport
CYGX : now visible

Airfield :











YOU CAN JOIN US ON...

 
LOGIN :

Register | Disclaimer

   EN    FR    IT 

 









Legend :    VFR   Marginal VFR   IFR   Intensive IFR   Very Intensive IFR
Visi :
Ceiling :
>= 8 km
>= 3000ft
5 to 8 km
1000 to 3000 ft
1500m to 5 km
500 to 1000 ft
800 to 1500m
200 to 500 ft
< 800m
< 200 ft
Symbols :   Thunderstorms  Fog  Heavy snow  Heavy precipitations  Wind > 20 kt






- Airport Elevation : 476 ft
- IATA code : YGX


CYGX - Gillam

CURRENT METAR :
  • 221300Z 19005KT 15SM BKN032 06/02 A2995 RMK SC6 SLP153

EXPIRED METARs :
  • 221240Z 19005KT 15SM SCT032 BKN085 04/02 A2995 RMK SC4AC2 SLP153
  • 221200Z 18005KT 14SM -RA BKN032 03/01 A2997 RMK SC7 SLP158
  • 221148Z 23005KT 13SM -RA OVC032 03/01 A2997 RMK SC8 SLP160
  • 221137Z 00000KT 10SM -SHRA OVC032 03/01 A2997 RMK SC8 SLP160
  • 221100Z 24010KT 15SM VCSH BKN035 OVC085 03/M04 A2998 RMK SC5AC3 SLP163
  • 221040Z 24005KT 15SM -RA SCT035 BKN085 02/M05 A2998 RMK SC4AC3 SLP163

TAF TAF CYGX
Valid from the 22 at 13:00 until the 23 at 01:00 UTC


221240Z 2213/2301 20005KT P6SM SCT030 BKN080
TEMPO 2213/2215 P6SM -RA BKN030 OVC080
BECMG 2213/2215 30010KT
FM221500 30010KT P6SM FEW030 SCT080
FM222200 30008KT P6SM BKN060 RMK NXT FCST BY 221900Z
CZWG FIR / North America



MET'MAP, your aeronautical weather chart ! - Copyright ORBIFLY December 2007 - Disclaimer

ORBIFLY MET'MAP TEAM :

Programming & Development : Alexandra Zaïnal
Original concept : Baudouin d'Aumeries
Technical & hardware support : Manuel Goepfert
Assistance : Marc-Olivier Méhu

Contact : metmap@orbifly.com




SOURCES & CREDITS :

   NOAA       Earth
Advisory